createdAt,value
2018-11-25T00:01:28.948Z,96530.88
2018-11-25T00:03:56.196Z,96529.32
2018-11-25T00:06:23.453Z,96528.06
2018-11-25T00:08:50.654Z,96526.27
2018-11-25T00:11:17.909Z,96520.01
2018-11-25T00:13:45.077Z,96524.57
2018-11-25T00:16:12.246Z,96517.14
2018-11-25T00:18:39.466Z,96517.20
2018-11-25T00:21:07.007Z,96522.14
2018-11-25T00:23:34.238Z,96518.27
2018-11-25T00:26:01.456Z,96518.16
2018-11-25T00:28:28.707Z,96512.48
2018-11-25T00:30:55.953Z,96514.91
2018-11-25T00:33:23.158Z,96509.23
2018-11-25T00:35:50.433Z,96386.53
2018-11-25T00:38:17.756Z,96507.09
2018-11-25T00:40:44.954Z,96510.00
2018-11-25T00:43:12.169Z,96508.12
2018-11-25T00:45:39.401Z,96511.56
2018-11-25T00:48:06.633Z,96511.04
2018-11-25T00:50:33.850Z,96505.95
2018-11-25T00:53:01.026Z,96510.49
2018-11-25T00:55:28.253Z,96508.98
2018-11-25T00:57:55.452Z,96506.36
2018-11-25T01:00:22.607Z,96508.73
2018-11-25T01:02:50.210Z,96516.31
2018-11-25T01:05:17.485Z,96518.64
2018-11-25T01:07:44.693Z,96522.66
2018-11-25T01:10:15.730Z,96518.98
2018-11-25T01:12:43.144Z,96510.39
2018-11-25T01:15:15.149Z,96518.49
2018-11-25T01:17:42.440Z,96516.80
2018-11-25T01:20:11.655Z,96514.47
2018-11-25T01:22:38.820Z,96512.09
2018-11-25T01:25:07.380Z,96510.05
2018-11-25T01:27:34.594Z,96516.06
2018-11-25T01:30:01.879Z,96504.58
2018-11-25T01:32:29.069Z,96507.19
2018-11-25T01:35:01.071Z,96501.00
2018-11-25T01:37:23.580Z,96499.53
2018-11-25T01:39:50.831Z,96493.03
2018-11-25T01:42:18.042Z,96493.08
2018-11-25T01:44:45.234Z,96488.33
2018-11-25T01:47:12.438Z,96397.55
2018-11-25T01:49:39.658Z,96487.00
2018-11-25T01:52:06.905Z,96479.68
2018-11-25T01:54:34.137Z,96476.53
2018-11-25T01:57:01.405Z,96481.23
2018-11-25T01:59:28.627Z,96472.22
2018-11-25T02:01:55.823Z,96470.27
2018-11-25T02:04:23.011Z,96464.61
2018-11-25T02:06:50.294Z,96465.72
2018-11-25T02:09:17.467Z,96462.28
2018-11-25T02:11:44.725Z,96459.17
2018-11-25T02:14:11.858Z,96458.19
2018-11-25T02:16:39.067Z,96463.78
2018-11-25T02:19:06.298Z,96457.75
2018-11-25T02:21:33.533Z,96456.80
2018-11-25T02:24:00.728Z,96456.99
2018-11-25T02:26:27.935Z,96443.34
2018-11-25T02:28:55.122Z,96433.50
2018-11-25T02:31:22.351Z,96436.08
2018-11-25T02:33:49.553Z,96437.23
2018-11-25T02:36:16.831Z,96437.57
2018-11-25T02:38:44.042Z,96432.92
2018-11-25T02:41:11.241Z,96427.29
2018-11-25T02:43:38.659Z,96425.27
2018-11-25T02:46:05.881Z,96419.83
2018-11-25T02:48:33.054Z,96426.77
2018-11-25T02:51:00.207Z,96428.38
2018-11-25T02:53:27.379Z,96425.94
2018-11-25T02:55:54.534Z,96422.25
2018-11-25T02:58:21.730Z,96411.84
2018-11-25T03:00:49.001Z,96419.44
2018-11-25T03:03:16.219Z,96412.89
2018-11-25T03:05:43.474Z,96414.27
2018-11-25T03:08:10.618Z,96413.97
2018-11-25T03:10:37.875Z,96413.13
2018-11-25T03:13:05.072Z,96410.63
2018-11-25T03:15:32.181Z,96418.39
2018-11-25T03:17:59.393Z,96423.42
2018-11-25T03:20:26.665Z,96422.09
2018-11-25T03:22:53.886Z,96419.52
2018-11-25T03:25:21.203Z,96413.38
2018-11-25T03:27:48.524Z,96408.48
2018-11-25T03:30:16.813Z,96410.33
2018-11-25T03:32:45.045Z,96413.48
2018-11-25T03:35:12.978Z,96404.02
2018-11-25T03:37:40.149Z,96415.35
2018-11-25T03:40:11.679Z,96418.46
2018-11-25T03:42:38.901Z,96417.44
2018-11-25T03:45:12.094Z,96418.95
2018-11-25T03:47:39.317Z,96411.06
2018-11-25T03:50:07.571Z,96408.94
2018-11-25T03:52:34.743Z,96409.17
2018-11-25T03:55:02.202Z,96407.56
2018-11-25T03:57:29.437Z,96409.75
2018-11-25T03:59:56.642Z,96407.03
2018-11-25T04:02:23.797Z,96406.36
2018-11-25T04:04:50.971Z,96404.89
2018-11-25T04:07:18.250Z,96403.94
2018-11-25T04:09:45.418Z,96412.73
2018-11-25T04:12:12.587Z,96404.88
2018-11-25T04:14:39.781Z,96404.13
2018-11-25T04:17:07.075Z,96402.22
2018-11-25T04:19:34.920Z,96392.56
2018-11-25T04:22:02.119Z,96390.03
2018-11-25T04:24:29.310Z,96382.78
2018-11-25T04:26:56.555Z,96385.66
2018-11-25T04:29:23.711Z,96376.19
2018-11-25T04:31:50.926Z,96385.16
2018-11-25T04:34:18.154Z,96387.92
2018-11-25T04:36:45.385Z,96390.30
2018-11-25T04:39:12.625Z,96388.11
2018-11-25T04:41:39.797Z,96384.00
2018-11-25T04:44:07.019Z,96375.09
2018-11-25T04:46:34.232Z,96377.22
2018-11-25T04:49:01.490Z,96376.69
2018-11-25T04:51:28.660Z,96380.31
2018-11-25T04:53:55.882Z,96381.37
2018-11-25T04:56:23.167Z,96370.27
2018-11-25T04:58:50.410Z,96368.38
2018-11-25T05:01:17.589Z,96365.77
2018-11-25T05:03:44.838Z,96368.20
2018-11-25T05:06:12.055Z,96369.99
2018-11-25T05:08:39.305Z,96378.91
2018-11-25T05:11:06.553Z,96370.28
2018-11-25T05:13:33.797Z,96372.31
2018-11-25T05:16:01.006Z,96371.16
2018-11-25T05:18:28.253Z,96371.41
2018-11-25T05:20:55.498Z,96370.38
2018-11-25T05:23:22.712Z,96371.44
2018-11-25T05:25:49.865Z,96363.65
2018-11-25T05:28:17.209Z,96370.39
2018-11-25T05:30:44.362Z,96368.39
2018-11-25T05:33:11.556Z,96361.31
2018-11-25T05:35:38.822Z,96363.31
2018-11-25T05:38:06.010Z,96359.03
2018-11-25T05:40:33.226Z,96350.07
2018-11-25T05:43:00.435Z,96358.27
2018-11-25T05:45:27.595Z,96354.39
2018-11-25T05:47:54.766Z,96352.98
2018-11-25T05:50:21.967Z,96349.48
2018-11-25T05:52:49.198Z,96347.31
2018-11-25T05:55:16.405Z,96345.89
2018-11-25T05:57:43.585Z,96345.69
2018-11-25T06:00:13.418Z,96344.14
2018-11-25T06:02:40.666Z,96350.83
2018-11-25T06:05:07.949Z,96354.07
2018-11-25T06:07:35.240Z,96349.19
2018-11-25T06:10:03.454Z,96355.38
2018-11-25T06:12:30.674Z,96359.39
2018-11-25T06:14:57.937Z,96352.61
2018-11-25T06:17:25.101Z,96352.48
2018-11-25T06:19:52.331Z,96364.25
2018-11-25T06:22:19.450Z,96362.73
2018-11-25T06:24:46.644Z,96364.29
2018-11-25T06:27:13.844Z,96359.61
2018-11-25T06:29:41.016Z,96359.04
2018-11-25T06:32:08.209Z,96365.34
2018-11-25T06:34:35.445Z,96366.53
2018-11-25T06:37:02.699Z,96375.73
2018-11-25T06:39:29.904Z,96372.47
2018-11-25T06:41:57.094Z,96369.94
2018-11-25T06:44:24.269Z,96368.42
2018-11-25T06:46:51.484Z,96367.00
2018-11-25T06:49:18.662Z,96365.20
2018-11-25T06:51:45.845Z,96365.97
2018-11-25T06:54:12.996Z,96367.20
2018-11-25T06:56:40.170Z,96368.80
2018-11-25T06:59:07.365Z,96369.07
2018-11-25T07:01:34.578Z,96370.05
2018-11-25T07:04:01.789Z,96366.91
2018-11-25T07:06:28.966Z,96365.88
2018-11-25T07:08:56.178Z,96364.70
2018-11-25T07:11:23.381Z,96363.32
2018-11-25T07:13:50.568Z,96363.16
2018-11-25T07:16:17.790Z,96365.69
2018-11-25T07:18:44.983Z,96371.32
2018-11-25T07:21:12.210Z,96366.95
2018-11-25T07:23:39.481Z,96371.28
2018-11-25T07:26:06.738Z,96375.04
2018-11-25T07:28:33.913Z,96375.28
2018-11-25T07:31:01.177Z,96381.14
2018-11-25T07:33:28.434Z,96376.64
2018-11-25T07:35:55.657Z,96375.61
2018-11-25T07:38:22.841Z,96371.00
2018-11-25T07:40:50.083Z,96370.19
2018-11-25T07:43:17.301Z,96373.16
2018-11-25T07:45:44.499Z,96369.00
2018-11-25T07:48:11.734Z,96377.82
2018-11-25T07:50:38.955Z,96371.41
2018-11-25T07:53:06.143Z,96373.57
2018-11-25T07:55:33.519Z,96371.70
2018-11-25T07:58:00.744Z,96367.94
2018-11-25T08:00:28.158Z,96358.37
2018-11-25T08:02:55.387Z,96351.30
2018-11-25T08:05:23.758Z,96353.02
2018-11-25T08:07:51.002Z,96359.36
2018-11-25T08:10:18.207Z,96358.83
2018-11-25T08:12:46.057Z,96359.52
2018-11-25T08:15:15.266Z,96350.33
2018-11-25T08:17:42.574Z,96349.19
2018-11-25T08:20:13.045Z,96354.09
2018-11-25T08:22:40.269Z,96345.91
2018-11-25T08:25:09.710Z,96346.94
2018-11-25T08:27:36.985Z,96344.36
2018-11-25T08:30:12.750Z,96348.20
2018-11-25T08:32:39.956Z,96337.40
2018-11-25T08:35:08.201Z,96337.92
2018-11-25T08:37:35.458Z,96333.30
2018-11-25T08:40:02.819Z,96334.27
2018-11-25T08:42:30.065Z,96335.39
2018-11-25T08:44:57.308Z,96338.05
2018-11-25T08:47:24.561Z,96342.55
2018-11-25T08:49:51.806Z,96333.72
2018-11-25T08:52:19.036Z,96333.23
2018-11-25T08:54:49.443Z,96328.48
2018-11-25T08:57:23.530Z,96324.48
2018-11-25T08:59:50.794Z,96327.05
2018-11-25T09:02:18.009Z,96335.14
2018-11-25T09:04:45.259Z,96330.09
2018-11-25T09:07:12.481Z,96332.30
2018-11-25T09:09:39.657Z,96324.84
2018-11-25T09:12:06.880Z,96328.38
2018-11-25T09:14:34.194Z,96330.38
2018-11-25T09:17:01.419Z,96325.58
2018-11-25T09:19:28.610Z,96331.22
2018-11-25T09:21:55.778Z,96333.25
2018-11-25T09:24:23.001Z,96328.84
2018-11-25T09:26:50.181Z,96325.74
2018-11-25T09:29:17.381Z,96325.44
2018-11-25T09:31:44.638Z,96323.37
2018-11-25T09:34:11.968Z,96315.32
2018-11-25T09:36:39.198Z,96317.25
2018-11-25T09:39:07.852Z,96304.59
2018-11-25T09:41:35.040Z,96299.41
2018-11-25T09:44:02.314Z,96300.20
2018-11-25T09:46:29.550Z,96304.64
2018-11-25T09:48:56.869Z,96300.42
2018-11-25T09:51:24.055Z,96300.88
2018-11-25T09:53:51.263Z,96299.81
2018-11-25T09:56:18.467Z,96301.25
2018-11-25T09:58:45.673Z,96296.69
2018-11-25T10:01:13.621Z,96295.25
2018-11-25T10:03:40.856Z,96287.73
2018-11-25T10:06:08.059Z,96289.13
2018-11-25T10:08:35.263Z,96280.52
2018-11-25T10:11:02.557Z,96280.91
2018-11-25T10:13:29.780Z,96275.01
2018-11-25T10:15:57.026Z,96269.44
2018-11-25T10:18:24.306Z,96264.88
2018-11-25T10:20:51.503Z,96256.03
2018-11-25T10:23:18.728Z,96249.13
2018-11-25T10:25:46.053Z,96247.89
2018-11-25T10:28:13.206Z,96249.39
2018-11-25T10:30:40.490Z,96244.48
2018-11-25T10:33:08.660Z,96242.41
2018-11-25T10:35:35.844Z,96232.43
2018-11-25T10:38:03.964Z,96229.48
2018-11-25T10:40:32.485Z,96227.16
2018-11-25T10:43:00.055Z,96219.30
2018-11-25T10:45:28.166Z,96215.52
2018-11-25T10:47:56.220Z,96218.42
2018-11-25T10:50:23.992Z,96214.66
2018-11-25T10:52:51.599Z,96210.17
2018-11-25T10:55:20.256Z,96209.36
2018-11-25T10:57:49.517Z,96204.95
2018-11-25T11:00:31.285Z,96209.19
2018-11-25T11:03:04.233Z,96207.34
2018-11-25T11:05:37.453Z,96202.81
2018-11-25T11:08:05.297Z,96196.36
2018-11-25T11:10:32.501Z,96188.20
2018-11-25T11:12:59.765Z,96186.12
2018-11-25T11:15:27.082Z,96183.13
2018-11-25T11:17:56.574Z,96177.59
2018-11-25T11:20:26.151Z,96174.69
2018-11-25T11:22:56.019Z,96159.63
2018-11-25T11:25:23.277Z,96162.75
2018-11-25T11:27:50.885Z,96154.84
2018-11-25T11:30:18.174Z,96162.17
2018-11-25T11:32:47.580Z,96149.95
2018-11-25T11:35:14.880Z,96154.44
2018-11-25T11:37:42.116Z,96150.98
2018-11-25T11:40:10.839Z,96147.62
2018-11-25T11:42:38.006Z,96143.69
2018-11-25T11:45:14.890Z,96136.43
2018-11-25T11:47:43.091Z,96139.14
2018-11-25T11:50:14.204Z,96130.98
2018-11-25T11:52:41.505Z,96125.06
2018-11-25T11:55:10.692Z,96128.45
2018-11-25T11:57:38.284Z,96127.14
2018-11-25T12:00:22.042Z,96117.81
2018-11-25T12:02:49.483Z,96119.00
2018-11-25T12:05:16.682Z,96118.36
2018-11-25T12:07:43.877Z,96123.37
2018-11-25T12:10:13.102Z,96118.19
2018-11-25T12:12:40.372Z,96112.58
2018-11-25T12:15:15.063Z,96116.41
2018-11-25T12:17:43.134Z,96116.56
2018-11-25T12:20:10.659Z,96111.39
2018-11-25T12:22:37.921Z,96113.12
2018-11-25T12:25:08.797Z,96109.24
2018-11-25T12:27:36.034Z,96100.48
2018-11-25T12:30:03.429Z,96103.22
2018-11-25T12:32:30.649Z,96099.39
2018-11-25T12:34:57.829Z,96090.34
2018-11-25T12:37:25.047Z,96079.02
2018-11-25T12:39:52.270Z,96090.61
2018-11-25T12:42:19.427Z,96086.87
2018-11-25T12:44:47.121Z,96085.34
2018-11-25T12:47:14.421Z,96083.72
2018-11-25T12:49:41.657Z,96085.64
2018-11-25T12:52:08.948Z,96092.42
2018-11-25T12:54:36.830Z,96084.42
2018-11-25T12:57:04.194Z,96074.95
2018-11-25T12:59:31.442Z,96071.75
2018-11-25T13:01:58.710Z,96075.31
2018-11-25T13:04:27.840Z,96070.59
2018-11-25T13:06:53.139Z,96066.69
2018-11-25T13:09:20.357Z,96064.30
2018-11-25T13:11:52.323Z,96060.78
2018-11-25T13:14:14.816Z,96059.36
2018-11-25T13:16:42.669Z,96056.03
2018-11-25T13:19:11.401Z,96053.34
2018-11-25T13:21:38.586Z,96047.69
2018-11-25T13:24:05.760Z,96041.77
2018-11-25T13:26:33.076Z,96047.62
2018-11-25T13:29:00.290Z,96039.13
2018-11-25T13:31:27.510Z,96041.77
2018-11-25T13:33:54.718Z,96037.53
2018-11-25T13:36:21.927Z,96033.28
2018-11-25T13:38:49.094Z,96031.34
2018-11-25T13:41:16.278Z,96032.82
2018-11-25T13:43:43.494Z,96034.79
2018-11-25T13:46:10.738Z,96031.63
2018-11-25T13:48:37.929Z,96027.70
2018-11-25T13:51:07.131Z,96034.18
2018-11-25T13:53:34.408Z,96031.72
2018-11-25T13:56:01.562Z,96026.69
2018-11-25T13:58:28.764Z,96034.65
2018-11-25T14:00:55.983Z,96033.20
2018-11-25T14:03:29.898Z,96031.34
2018-11-25T14:05:57.090Z,96034.22
2018-11-25T14:08:24.422Z,96037.52
2018-11-25T14:11:06.057Z,96037.46
2018-11-25T14:13:33.272Z,96036.05
2018-11-25T14:16:00.519Z,96036.35
2018-11-25T14:18:27.649Z,96040.69
2018-11-25T14:20:54.859Z,96037.66
2018-11-25T14:23:22.008Z,96040.98
2018-11-25T14:25:49.586Z,96042.30
2018-11-25T14:28:16.900Z,96041.59
2018-11-25T14:30:44.409Z,96038.91
2018-11-25T14:33:11.697Z,96042.00
2018-11-25T14:35:38.941Z,96036.05
2018-11-25T14:38:06.844Z,96041.36
2018-11-25T14:40:34.126Z,96036.05
2018-11-25T14:43:01.341Z,96034.67
2018-11-25T14:45:28.526Z,96035.38
2018-11-25T14:47:55.788Z,96034.20
2018-11-25T14:50:23.079Z,96037.28
2018-11-25T14:52:51.593Z,96035.70
2018-11-25T14:55:19.311Z,96033.08
2018-11-25T14:57:46.622Z,96035.73
2018-11-25T15:00:17.051Z,96040.63
2018-11-25T15:02:45.738Z,96036.81
2018-11-25T15:05:15.809Z,96036.67
2018-11-25T15:07:43.015Z,96030.90
2018-11-25T15:10:10.801Z,96002.50
2018-11-25T15:12:37.505Z,96027.20
2018-11-25T15:15:08.489Z,96024.11
2018-11-25T15:17:35.692Z,96022.27
2018-11-25T15:20:04.156Z,96021.92
2018-11-25T15:22:31.671Z,96019.39
2018-11-25T15:24:59.090Z,96020.08
2018-11-25T15:27:26.638Z,96021.92
2018-11-25T15:29:54.092Z,96011.48
2018-11-25T15:32:21.729Z,96014.99
2018-11-25T15:34:49.626Z,96019.30
2018-11-25T15:37:17.163Z,96013.41
2018-11-25T15:39:44.914Z,96011.44
2018-11-25T15:42:12.418Z,96004.39
2018-11-25T15:44:39.861Z,96003.33
2018-11-25T15:47:08.227Z,96000.44
2018-11-25T15:49:35.389Z,95999.94
2018-11-25T15:52:03.103Z,95990.73
2018-11-25T15:54:30.543Z,96000.13
2018-11-25T15:56:57.980Z,95992.05
2018-11-25T15:59:25.506Z,95990.23
2018-11-25T16:01:52.956Z,95988.92
2018-11-25T16:04:20.488Z,95990.14
2018-11-25T16:06:47.920Z,95988.53
2018-11-25T16:09:15.366Z,95990.67
2018-11-25T16:11:42.826Z,95990.67
2018-11-25T16:14:10.271Z,95992.92
2018-11-25T16:16:37.690Z,95989.84
2018-11-25T16:19:05.124Z,95983.83
2018-11-25T16:21:32.524Z,95982.69
2018-11-25T16:23:59.907Z,95992.80
2018-11-25T16:26:29.968Z,95987.62
2018-11-25T16:29:00.581Z,95987.70
2018-11-25T16:31:27.906Z,95988.64
2018-11-25T16:33:55.222Z,95980.55
2018-11-25T16:36:22.524Z,95980.07
2018-11-25T16:38:49.834Z,95980.61
2018-11-25T16:41:17.105Z,95979.00
2018-11-25T16:43:44.430Z,95979.23
2018-11-25T16:46:11.896Z,95977.92
2018-11-25T16:48:39.462Z,95979.20
2018-11-25T16:51:07.052Z,95974.97
2018-11-25T16:53:34.545Z,95967.75
2018-11-25T16:56:01.937Z,95963.05
2018-11-25T16:58:29.540Z,95969.77
2018-11-25T17:00:56.946Z,95972.98
2018-11-25T17:03:24.275Z,95967.28
2018-11-25T17:05:52.362Z,95967.52
2018-11-25T17:08:31.133Z,95964.59
2018-11-25T17:10:58.481Z,95963.66
2018-11-25T17:13:25.850Z,95958.24
2018-11-25T17:15:53.302Z,95961.63
2018-11-25T17:18:21.335Z,95968.89
2018-11-25T17:20:48.743Z,95959.35
2018-11-25T17:23:16.220Z,95958.48
2018-11-25T17:25:43.738Z,95963.41
2018-11-25T17:28:11.125Z,95965.55
2018-11-25T17:30:38.511Z,95963.30
2018-11-25T17:33:06.539Z,95970.08
2018-11-25T17:35:33.890Z,95973.77
2018-11-25T17:38:01.263Z,95975.10
2018-11-25T17:40:28.792Z,95980.07
2018-11-25T17:42:56.098Z,95980.64
2018-11-25T17:45:23.448Z,95972.08
2018-11-25T17:47:50.814Z,95981.17
2018-11-25T17:50:27.427Z,95977.19
2018-11-25T17:52:55.104Z,95974.16
2018-11-25T17:55:24.109Z,95974.45
2018-11-25T17:57:51.660Z,95906.83
2018-11-25T18:00:38.027Z,95979.16
2018-11-25T18:03:23.135Z,95971.36
2018-11-25T18:05:50.525Z,95975.52
2018-11-25T18:08:18.053Z,95978.38
2018-11-25T18:10:45.444Z,95968.80
2018-11-25T18:13:12.949Z,95970.30
2018-11-25T18:15:40.385Z,95970.66
2018-11-25T18:18:10.750Z,95965.75
2018-11-25T18:20:45.197Z,95969.97
2018-11-25T18:23:12.695Z,95971.52
2018-11-25T18:25:40.153Z,95972.53
2018-11-25T18:28:07.563Z,95971.28
2018-11-25T18:30:35.034Z,95976.22
2018-11-25T18:33:03.071Z,95966.34
2018-11-25T18:35:30.695Z,95968.48
2018-11-25T18:37:58.236Z,95963.07
2018-11-25T18:40:25.566Z,95967.65
2018-11-25T18:42:52.955Z,95968.19
2018-11-25T18:45:20.372Z,95973.23
2018-11-25T18:47:50.145Z,95967.53
2018-11-25T18:50:18.188Z,95965.33
2018-11-25T18:52:47.529Z,95971.64
2018-11-25T18:55:13.802Z,95970.39
2018-11-25T18:57:41.243Z,95966.64
2018-11-25T19:00:11.152Z,95970.80
2018-11-25T19:02:40.854Z,95965.45
2018-11-25T19:05:08.712Z,95979.55
2018-11-25T19:07:36.743Z,95960.39
2018-11-25T19:10:08.528Z,95956.02
2018-11-25T19:12:43.734Z,95956.33
2018-11-25T19:15:05.098Z,95954.45
2018-11-25T19:17:32.845Z,95957.62
2018-11-25T19:20:01.599Z,95926.74
2018-11-25T19:22:29.528Z,95954.36
2018-11-25T19:24:57.226Z,95957.22
2018-11-25T19:27:25.055Z,95958.34
2018-11-25T19:29:53.163Z,95952.05
2018-11-25T19:32:20.897Z,95960.25
2018-11-25T19:34:48.763Z,95957.87
2018-11-25T19:37:17.241Z,95958.20
2018-11-25T19:39:45.020Z,95960.52
2018-11-25T19:42:13.258Z,95963.58
2018-11-25T19:44:41.023Z,95740.33
2018-11-25T19:47:09.269Z,95902.27
2018-11-25T19:49:37.060Z,95962.47
2018-11-25T19:52:04.949Z,95962.29
2018-11-25T19:54:33.116Z,95968.77
2018-11-25T19:57:02.189Z,95958.75
2018-11-25T19:59:30.005Z,95972.75
2018-11-25T20:01:57.879Z,95969.13
2018-11-25T20:04:27.783Z,95966.59
2018-11-25T20:06:55.984Z,95964.87
2018-11-25T20:09:28.350Z,95961.00
2018-11-25T20:11:56.731Z,95960.70
2018-11-25T20:14:24.982Z,95965.99
2018-11-25T20:16:58.639Z,95958.62
2018-11-25T20:19:27.293Z,95961.48
2018-11-25T20:22:01.907Z,95955.56
2018-11-25T20:24:30.726Z,95955.48
2018-11-25T20:27:04.834Z,95953.72
2018-11-25T20:29:34.223Z,95954.90
2018-11-25T20:32:10.265Z,95941.95
2018-11-25T20:34:38.295Z,95944.09
2018-11-25T20:37:10.076Z,95944.84
2018-11-25T20:39:38.010Z,95945.52
2018-11-25T20:42:06.044Z,95926.56
2018-11-25T20:44:33.888Z,95951.11
2018-11-25T20:47:04.475Z,95951.16
2018-11-25T20:49:32.987Z,95949.13
2018-11-25T20:52:06.689Z,95948.77
2018-11-25T20:54:34.735Z,95943.17
2018-11-25T20:57:02.887Z,95947.09
2018-11-25T20:59:31.208Z,95943.67
2018-11-25T21:02:00.098Z,95940.30
2018-11-25T21:04:29.648Z,95937.63
2018-11-25T21:19:52.540Z,95869.59
2018-11-25T21:22:20.260Z,95944.45
2018-11-25T21:24:48.790Z,95943.02
2018-11-25T21:27:16.790Z,95939.39
2018-11-25T21:29:45.113Z,95935.14
2018-11-25T21:32:14.045Z,95929.77
2018-11-25T21:34:41.250Z,95935.23
2018-11-25T21:37:08.454Z,95932.33
2018-11-25T21:39:35.653Z,95936.11
2018-11-25T21:42:02.863Z,95938.54
2018-11-25T21:44:30.886Z,95939.16
2018-11-25T21:46:58.046Z,95939.48
2018-11-25T21:49:25.305Z,95942.65
2018-11-25T21:51:52.503Z,95948.41
2018-11-25T21:54:19.743Z,95941.92
2018-11-25T21:56:46.947Z,95941.09
2018-11-25T21:59:14.175Z,95941.84
2018-11-25T22:01:41.374Z,95943.28
2018-11-25T22:04:08.655Z,95946.97
2018-11-25T22:06:35.853Z,95945.22
2018-11-25T22:09:04.899Z,95941.98
2018-11-25T22:11:38.809Z,95947.63
2018-11-25T22:14:06.072Z,95950.19
2018-11-25T22:16:33.308Z,95938.02
2018-11-25T22:19:00.526Z,95942.55
2018-11-25T22:21:27.861Z,95944.43
2018-11-25T22:23:55.041Z,95946.90
2018-11-25T22:26:22.245Z,95949.17
2018-11-25T22:28:49.433Z,95945.06
2018-11-25T22:31:16.641Z,95946.65
2018-11-25T22:33:43.957Z,95949.17
2018-11-25T22:36:11.194Z,95949.08
2018-11-25T22:38:38.393Z,95942.80
2018-11-25T22:41:05.683Z,95942.16
2018-11-25T22:43:32.911Z,95949.50
2018-11-25T22:46:00.171Z,95937.78
2018-11-25T22:48:27.375Z,95943.91
2018-11-25T22:50:54.611Z,95946.81
2018-11-25T22:53:21.798Z,95943.77
2018-11-25T22:55:48.994Z,95942.80
2018-11-25T22:58:16.245Z,95946.77
2018-11-25T23:00:43.545Z,95946.97
2018-11-25T23:03:10.748Z,95949.62
2018-11-25T23:05:51.110Z,95950.39
2018-11-25T23:08:18.318Z,95943.34
2018-11-25T23:10:45.577Z,95945.36
2018-11-25T23:13:12.811Z,95946.17
2018-11-25T23:15:40.019Z,95943.77
2018-11-25T23:18:07.230Z,95943.09
2018-11-25T23:20:34.394Z,95933.42
2018-11-25T23:23:01.584Z,95931.09
2018-11-25T23:25:28.785Z,95929.01
2018-11-25T23:27:55.946Z,95925.97
2018-11-25T23:30:23.214Z,95925.77
2018-11-25T23:32:50.453Z,95928.38
2018-11-25T23:35:18.916Z,95930.41
2018-11-25T23:37:46.117Z,95936.70
2018-11-25T23:40:13.281Z,95925.66
2018-11-25T23:42:40.477Z,95931.90
2018-11-25T23:45:10.257Z,95930.14
2018-11-25T23:47:37.468Z,95927.55
